Iron Mountain, MI (49801)

6:26 AM CDT on August 05, 2015 (GMT -0500)
East Kingsford | | Change Station
CLOSE
Current Station
Personal Weather Station
Location: Kingsford, MI
Elevation: 1112 ft
Nearby Weather Stations

Elev 1112 ft 45.79 °N, 88.05 °W | Updated 1 minute ago

Clear
Clear
47.5 °F
Feels Like 48 °F
N
1.0
Wind Variable Wind from WSW
Gusts 3.0 mph

Today
High -- | Low -- °F
--% Chance of Precip.
Yesterday
High -- | Low -- °F
Precip. -- in
5:39 AM 8:16 PM
Waning Gibbous, 68% visible
Pressure 30.10 in
Visibility 10.0 miles
Clouds Clear
Windchill 48 °F
Dew Point 47 °F
Humidity 97%
Rainfall 0.00 in
Snow Depth Not available.
UV 0 out of 12
Pollen 7.50 out of 12
Air Quality Not available.
Flu Activity Not available.
METAR KIMT 051054Z AUTO 00000KT 10SM CLR 07/06 A3009 RMK AO2 SLP191 T00720056

More Conditions Fewer Conditions

Pressure 30.10 in
Visibility 10.0 miles
Clouds Clear
Windchill 48 °F
Dew Point 47 °F
Humidity 97%
Rainfall 0.00 in
Snow Depth Not available.
UV 0 out of 12
Pollen 7.50 out of 12
Air Quality Not available.
Flu Activity Not available.
METAR KIMT 051054Z AUTO 00000KT 10SM CLR 07/06 A3009 RMK AO2 SLP191 T00720056

More Conditions Fewer Conditions

10-Day Weather Forecast

×

Almanac

Astronomy

Aug. 05, 2015 Rise Set
Actual Time
Civil Twilight
Nautical Twilight
Astronomical Twilight
Moon
Length of Visible Light
Length of Day
Tomorrow will be .
, % of the Moon is Illuminated

Today's Extremes

State Highs State Lows

Community

WunderPhotos

Upload Photos

1,844,133 photos uploaded!

WunderBlogs® & News

Nearby

Air Quality

  Air Quality AQ Index Pollutant
Not available.

Snow Depth

Station Depth Elevation

Earthquake Activity

City Distance Mag. Time & Date
Minimum magnitude displayed is 2.5.

Coastal Water Temperatures

Place Temperature

Stations

Nearby Weather Stations

Station Location Temp. Windchill Dew Point Humidity Wind Precip. Elev Updated Type